Time;durP1;ratioP1;P1;durP2;ratioP2;P2;SDS_P1;SDS_P2;PMS_P1;PMS_P2;Temp;Humidity;BMP_temperature;BMP_pressure;BME280_temperature;BME280_humidity;BME280_pressure;Samples;Min_cycle;Max_cycle;Signal;HPM_P1;HPM_P2
2021/11/20 00:00:29;;;;;;;;;;;;;;;18.45;69.58;101347.25;5077992;28;1605;-42
2021/11/20 00:02:59;;;;;;;;;;;;;;;18.31;70.10;101360.00;5087485;28;1819;-42
2021/11/20 00:05:28;;;;;;;;;;;;;;;18.36;70.51;101357.81;5080998;28;1616;-43
2021/11/20 00:07:57;;;;;;;;;;;;;;;18.59;68.86;101348.84;5085226;28;1847;-44
2021/11/20 00:10:29;;;;;;;;;;;;;;;18.53;69.28;101346.66;5076319;28;1868;-43
2021/11/20 00:12:57;;;;;;;;;;;;;;;18.33;70.92;101350.88;5087896;28;1853;-42
2021/11/20 00:15:27;;;;;;;;;;;;;;;18.22;70.21;101349.03;5091266;28;1849;-44
2021/11/20 00:17:55;;;;;;;;;;;;;;;18.34;70.29;101327.63;5079547;28;1909;-43
2021/11/20 00:20:26;;;;;;;;;;;;;;;18.60;69.19;101339.00;5081957;28;1931;-43
2021/11/20 00:22:54;;;;;;;;;;;;;;;18.45;69.77;101327.66;5076852;28;2001;-42
2021/11/20 00:25:23;;;;;;;;;;;;;;;18.29;71.09;101338.69;5081703;28;1848;-42
2021/11/20 00:28:02;;;;;;;;;;;;;;;18.28;69.89;101327.13;5087607;28;1754;-43
2021/11/20 00:30:40;;;;;;;;;;;;;;;18.53;69.51;101327.91;5078493;28;1591;-43
2021/11/20 00:33:10;;;;;;;;;;;;;;;18.53;70.01;101324.38;5085049;28;1558;-43
2021/11/20 00:35:43;;;;;;;;;;;;;;;18.34;70.49;101322.25;5085349;28;1109;-43
2021/11/20 00:38:10;;;;;;;;;;;;;;;18.25;71.08;101319.31;5091484;28;1898;-42
2021/11/20 00:40:38;;;;;;;;;;;;;;;18.25;71.05;101318.47;5079787;28;1993;-42
2021/11/20 00:43:09;;;;;;;;;;;;;;;18.52;69.14;101326.19;5076532;28;1773;-43
2021/11/20 00:45:36;;;;;;;;;;;;;;;18.58;69.60;101327.53;5083421;28;1726;-43
2021/11/20 00:48:03;;;;;;;;;;;;;;;18.47;69.78;101317.66;5074348;28;1414;-43
2021/11/20 00:50:40;;;;;;;;;;;;;;;18.34;69.95;101322.25;5077152;28;1111;-43
2021/11/20 00:53:08;;;;;;;;;;;;;;;18.52;69.62;101315.47;5077513;28;1645;-43
2021/11/20 00:55:38;;;;;;;;;;;;;;;18.71;69.44;101308.72;5077504;28;1856;-43
2021/11/20 00:58:10;;;;;;;;;;;;;;;18.51;70.14;101313.78;5077027;28;1999;-42
2021/11/20 01:00:38;;;;;;;;;;;;;;;18.35;70.62;101315.94;5089084;28;1726;-43
2021/11/20 01:03:08;;;;;;;;;;;;;;;18.31;70.06;101322.50;5082371;28;1781;-43
2021/11/20 01:05:35;;;;;;;;;;;;;;;18.45;69.77;101319.63;5089895;28;1103;-43
2021/11/20 01:08:18;;;;;;;;;;;;;;;18.60;69.19;101312.22;5087685;28;1709;-43
2021/11/20 01:10:53;;;;;;;;;;;;;;;18.42;69.56;101325.19;5094539;28;1791;-43
2021/11/20 01:13:27;;;;;;;;;;;;;;;18.27;71.00;101305.81;5080730;28;1738;-43
2021/11/20 01:15:59;;;;;;;;;;;;;;;18.34;69.88;101295.47;5095647;28;1976;-43
2021/11/20 01:18:33;;;;;;;;;;;;;;;18.60;69.07;101302.38;5079556;28;1906;-42
2021/11/20 01:21:04;;;;;;;;;;;;;;;18.46;70.03;101278.47;5087847;28;1569;-42
2021/11/20 01:23:32;;;;;;;;;;;;;;;18.29;70.42;101282.47;5086717;28;1511;-43
2021/11/20 01:25:59;;;;;;;;;;;;;;;18.23;70.66;101282.94;5087697;28;1699;-43
2021/11/20 01:28:33;;;;;;;;;;;;;;;18.46;69.86;101273.09;5080070;28;1813;-43
2021/11/20 01:31:00;;;;;;;;;;;;;;;18.59;68.97;101281.06;5082270;28;1774;-43
2021/11/20 01:33:28;;;;;;;;;;;;;;;18.42;69.39;101283.22;5085794;28;1861;-43
2021/11/20 01:35:56;;;;;;;;;;;;;;;18.26;70.38;101271.97;5088039;28;1570;-43
2021/11/20 01:38:23;;;;;;;;;;;;;;;18.48;68.98;101273.84;5086430;28;1901;-43
2021/11/20 01:40:53;;;;;;;;;;;;;;;18.72;68.95;101259.50;5081535;28;1722;-43
2021/11/20 01:43:21;;;;;;;;;;;;;;;18.54;69.98;101259.13;5079726;28;1920;-43
2021/11/20 01:45:55;;;;;;;;;;;;;;;18.35;69.99;101265.91;5079418;28;1737;-43
2021/11/20 01:48:34;;;;;;;;;;;;;;;18.25;70.30;101264.94;5079430;28;1803;-43
2021/11/20 01:51:05;;;;;;;;;;;;;;;18.40;69.91;101273.59;5086094;28;1569;-43
2021/11/20 01:53:37;;;;;;;;;;;;;;;18.63;68.87;101279.84;5086113;28;1949;-43
2021/11/20 01:56:17;;;;;;;;;;;;;;;18.45;70.09;101268.75;5090364;28;1625;-43
2021/11/20 01:58:44;;;;;;;;;;;;;;;18.27;70.36;101282.56;5092617;28;1991;-42
2021/11/20 02:01:15;;;;;;;;;;;;;;;18.26;70.67;101291.59;5088246;28;2020;-43
2021/11/20 02:04:01;;;;;;;;;;;;;;;18.52;69.86;101275.31;5075957;28;1696;-43
2021/11/20 02:06:35;;;;;;;;;;;;;;;18.46;69.46;101297.22;5076181;28;1703;-43
2021/11/20 02:09:05;;;;;;;;;;;;;;;18.26;70.66;101275.53;5086380;28;1820;-43
2021/11/20 02:11:33;;;;;;;;;;;;;;;18.25;70.02;101291.69;5085755;28;1737;-42
2021/11/20 02:14:10;;;;;;;;;;;;;;;18.40;69.58;101281.63;5085091;28;1931;-43
2021/11/20 02:16:40;;;;;;;;;;;;;;;18.56;68.96;101290.19;5083811;28;2383;-43
2021/11/20 02:19:22;;;;;;;;;;;;;;;18.42;69.70;101301.09;5084585;28;2049;-42
2021/11/20 02:21:50;;;;;;;;;;;;;;;18.23;70.27;101294.50;5078339;28;1083;-43
2021/11/20 02:24:20;;;;;;;;;;;;;;;18.38;69.37;101286.25;5083174;28;1453;-43
2021/11/20 02:26:49;;;;;;;;;;;;;;;18.56;69.37;101279.47;5082447;28;2221;-43
2021/11/20 02:29:27;;;;;;;;;;;;;;;18.46;69.50;101267.75;5093556;28;1435;-42
2021/11/20 02:32:00;;;;;;;;;;;;;;;18.31;69.71;101274.31;5083653;28;2055;-43
2021/11/20 02:34:33;;;;;;;;;;;;;;;18.27;70.54;101276.38;5078705;28;1770;-43
2021/11/20 02:37:03;;;;;;;;;;;;;;;18.54;69.64;101273.34;5075305;28;1705;-43
2021/11/20 02:39:33;;;;;;;;;;;;;;;18.52;68.97;101286.00;5079468;28;1967;-43
2021/11/20 02:42:02;;;;;;;;;;;;;;;18.28;70.38;101270.91;5093050;28;1051;-43
2021/11/20 02:44:29;;;;;;;;;;;;;;;18.22;70.02;101286.56;5089585;28;2084;-43
2021/11/20 02:47:06;;;;;;;;;;;;;;;18.36;69.94;101282.81;5087161;28;1867;-43
2021/11/20 02:49:36;;;;;;;;;;;;;;;18.55;68.72;101274.22;5089190;28;2222;-42
2021/11/20 02:52:05;;;;;;;;;;;;;;;18.38;70.22;101272.84;5076103;28;1995;-43
2021/11/20 02:54:42;;;;;;;;;;;;;;;18.26;69.74;101280.88;5084149;28;1556;-44
2021/11/20 02:57:11;;;;;;;;;;;;;;;18.28;70.34;101265.56;5086300;28;1945;-43
2021/11/20 02:59:40;;;;;;;;;;;;;;;18.53;68.54;101252.91;5075302;28;1905;-43
2021/11/20 03:02:21;;;;;;;;;;;;;;;18.45;69.74;101263.38;5143299;22;3560;-44
2021/11/20 03:04:54;;;;;;;;;;;;;;;18.28;70.41;101268.22;5040893;28;1614;-44
2021/11/20 03:07:28;;;;;;;;;;;;;;;18.22;70.38;101262.47;5051237;28;1761;-45
2021/11/20 03:09:58;;;;;;;;;;;;;;;18.53;69.55;101271.66;5035904;28;1513;-43
2021/11/20 03:12:31;;;;;;;;;;;;;;;18.46;69.62;101263.28;5053489;28;1849;-43
2021/11/20 03:14:59;;;;;;;;;;;;;;;18.31;70.22;101263.59;5048066;28;1068;-44
2021/11/20 03:17:29;;;;;;;;;;;;;;;18.23;69.95;101278.44;5051238;28;1693;-44
2021/11/20 03:19:59;;;;;;;;;;;;;;;18.45;69.47;101279.44;5035358;28;1910;-45
2021/11/20 03:22:35;;;;;;;;;;;;;;;18.59;69.05;101273.84;5037872;28;1960;-44
2021/11/20 03:25:04;;;;;;;;;;;;;;;18.39;69.64;101250.47;5049945;28;1713;-44
2021/11/20 03:27:30;;;;;;;;;;;;;;;18.22;69.94;101255.31;5047887;28;1784;-43
2021/11/20 03:30:01;;;;;;;;;;;;;;;18.44;69.79;101258.97;5052042;28;1705;-44
2021/11/20 03:32:29;;;;;;;;;;;;;;;18.65;68.30;101243.06;5032637;28;1059;-44
2021/11/20 03:34:59;;;;;;;;;;;;;;;18.47;69.11;101229.31;5040554;28;1566;-43
2021/11/20 03:37:28;;;;;;;;;;;;;;;18.28;69.52;101228.06;5050595;28;1958;-44
2021/11/20 03:39:55;;;;;;;;;;;;;;;18.22;70.10;101233.03;5050402;28;1906;-43
2021/11/20 03:42:42;;;;;;;;;;;;;;;18.40;69.27;101245.00;5033972;28;1812;-44
2021/11/20 03:45:10;;;;;;;;;;;;;;;18.58;69.49;101223.09;5038594;28;1412;-44
2021/11/20 03:47:39;;;;;;;;;;;;;;;18.42;69.02;101237.69;5031991;28;1779;-44
2021/11/20 03:50:13;;;;;;;;;;;;;;;18.22;70.31;101233.91;5033699;28;1000;-44
2021/11/20 03:52:50;;;;;;;;;;;;;;;18.22;70.38;101233.03;5037983;28;1729;-44
2021/11/20 03:55:28;;;;;;;;;;;;;;;18.54;68.72;101229.66;5033242;28;2198;-43
2021/11/20 03:57:55;;;;;;;;;;;;;;;18.44;69.94;101237.56;5046854;28;1584;-44
2021/11/20 04:00:33;;;;;;;;;;;;;;;18.25;70.20;101238.16;5035366;28;1973;-44
2021/11/20 04:03:06;;;;;;;;;;;;;;;18.16;70.32;101237.03;5032707;28;1640;-44
2021/11/20 04:05:36;;;;;;;;;;;;;;;18.42;69.25;101242.19;5033255;28;1011;-45
2021/11/20 04:08:04;;;;;;;;;;;;;;;18.46;69.33;101235.63;5040650;28;1719;-44
2021/11/20 04:10:32;;;;;;;;;;;;;;;18.28;69.35;101244.13;5040496;28;1753;-43
2021/11/20 04:12:59;;;;;;;;;;;;;;;18.19;70.22;101255.53;5048750;28;1302;-44
2021/11/20 04:15:27;;;;;;;;;;;;;;;18.38;70.01;101243.41;5051441;28;1552;-45
2021/11/20 04:18:07;;;;;;;;;;;;;;;18.51;69.67;101237.94;5048345;28;1542;-44
2021/11/20 04:20:41;;;;;;;;;;;;;;;18.36;69.14;101238.16;5033310;28;1902;-44
2021/11/20 04:23:12;;;;;;;;;;;;;;;18.20;70.29;101241.16;5042629;28;1714;-44
2021/11/20 04:25:43;;;;;;;;;;;;;;;18.31;69.66;101236.84;5048693;28;2113;-45
2021/11/20 04:28:13;;;;;;;;;;;;;;;18.49;68.95;101235.38;5047165;28;1630;-44
2021/11/20 04:30:40;;;;;;;;;;;;;;;18.41;69.61;101238.66;5050693;28;1736;-44
2021/11/20 04:33:07;;;;;;;;;;;;;;;18.23;70.10;101235.59;5048105;28;1698;-44
2021/11/20 04:35:40;;;;;;;;;;;;;;;18.18;70.31;101229.72;5033030;28;1003;-44
2021/11/20 04:38:07;;;;;;;;;;;;;;;18.41;69.18;101217.25;5042506;28;1741;-44
2021/11/20 04:40:35;;;;;;;;;;;;;;;18.49;69.62;101212.13;5039052;28;1906;-44
2021/11/20 04:43:05;;;;;;;;;;;;;;;18.31;70.11;101210.91;5037305;28;2170;-44
2021/11/20 04:45:39;;;;;;;;;;;;;;;18.17;69.90;101208.47;5039516;28;1827;-44
2021/11/20 04:48:08;;;;;;;;;;;;;;;18.29;69.93;101213.69;5049116;28;1537;-44
2021/11/20 04:50:40;;;;;;;;;;;;;;;18.54;69.60;101210.91;5052530;28;1883;-45
2021/11/20 04:53:08;;;;;;;;;;;;;;;18.35;69.54;101219.56;5046653;28;1632;-44
2021/11/20 04:55:45;;;;;;;;;;;;;;;18.18;69.96;101219.03;5043334;28;1714;-44
2021/11/20 04:58:12;;;;;;;;;;;;;;;18.29;70.06;101237.78;5032361;28;1595;-44
2021/11/20 05:00:40;;;;;;;;;;;;;;;18.52;68.50;101219.06;5036964;28;1906;-43
2021/11/20 05:03:08;;;;;;;;;;;;;;;18.37;68.82;101209.59;5038972;28;1703;-43
2021/11/20 05:05:49;;;;;;;;;;;;;;;18.21;69.95;101200.06;5038867;28;2010;-44
2021/11/20 05:08:20;;;;;;;;;;;;;;;18.25;69.81;101206.88;5050889;28;1688;-45
2021/11/20 05:10:51;;;;;;;;;;;;;;;18.51;69.57;101217.38;5037930;28;2048;-44
2021/11/20 05:13:18;;;;;;;;;;;;;;;18.42;68.67;101213.59;5033006;28;1652;-44
2021/11/20 05:15:46;;;;;;;;;;;;;;;18.32;69.41;101217.09;5032596;28;1853;-43
2021/11/20 05:21:00;;;;;;;;;;;;;;;18.56;68.19;101225.91;5049873;28;1981;-44
2021/11/20 05:23:31;;;;;;;;;;;;;;;18.43;69.47;101230.50;5050232;28;2057;-43
2021/11/20 05:25:59;;;;;;;;;;;;;;;18.26;69.24;101240.72;5048252;28;1943;-44
2021/11/20 05:28:30;;;;;;;;;;;;;;;18.14;69.88;101238.97;5048884;28;1416;-44
2021/11/20 05:30:59;;;;;;;;;;;;;;;18.28;69.84;101236.09;5050153;28;1738;-43
2021/11/20 05:33:32;;;;;;;;;;;;;;;18.52;68.57;101237.81;5047004;28;1670;-44
2021/11/20 05:36:04;;;;;;;;;;;;;;;18.37;69.35;101236.34;5032815;28;1002;-44
2021/11/20 05:38:39;;;;;;;;;;;;;;;18.20;69.80;101219.75;5032265;28;1820;-43
2021/11/20 05:41:10;;;;;;;;;;;;;;;18.23;70.20;101214.19;5040403;28;1902;-44
2021/11/20 05:43:45;;;;;;;;;;;;;;;18.53;68.85;101215.41;5047210;28;1711;-43
2021/11/20 05:46:14;;;;;;;;;;;;;;;18.44;68.68;101224.16;5050009;28;1919;-44
2021/11/20 05:48:43;;;;;;;;;;;;;;;18.25;69.11;101236.31;5050018;28;1736;-44
2021/11/20 05:51:13;;;;;;;;;;;;;;;18.21;69.65;101229.50;5051819;28;1016;-46
2021/11/20 05:53:41;;;;;;;;;;;;;;;18.46;68.69;101214.19;5043281;28;1737;-44
2021/11/20 05:56:12;;;;;;;;;;;;;;;18.42;68.59;101208.25;5042536;28;1561;-44
2021/11/20 05:58:41;;;;;;;;;;;;;;;18.25;69.79;101228.28;5051362;28;1454;-44
2021/11/20 06:01:19;;;;;;;;;;;;;;;18.16;69.80;101222.81;5053422;28;1967;-44
2021/11/20 06:04:02;;;;;;;;;;;;;;;18.36;69.08;101223.94;5052872;28;1618;-46
2021/11/20 06:06:34;;;;;;;;;;;;;;;18.44;69.31;101216.13;5035847;28;1004;-45
2021/11/20 06:09:02;;;;;;;;;;;;;;;18.32;68.99;101233.16;5035946;28;2185;-44
2021/11/20 06:11:32;;;;;;;;;;;;;;;18.17;69.87;101235.22;5043534;28;1969;-43
2021/11/20 06:14:03;;;;;;;;;;;;;;;18.30;69.03;101233.28;5041222;28;1779;-44
2021/11/20 06:16:38;;;;;;;;;;;;;;;18.39;69.24;101227.22;5046010;28;1963;-43
2021/11/20 06:19:18;;;;;;;;;;;;;;;18.31;68.84;101239.50;5052944;28;1968;-45
2021/11/20 06:21:46;;;;;;;;;;;;;;;18.15;70.23;101250.56;5054859;28;1691;-43
2021/11/20 06:24:17;;;;;;;;;;;;;;;18.35;69.25;101254.38;5053266;28;1676;-44
2021/11/20 06:26:44;;;;;;;;;;;;;;;18.48;68.39;101239.91;5041358;28;1430;-43
2021/11/20 06:29:12;;;;;;;;;;;;;;;18.31;68.83;101234.16;5047100;28;1997;-43
2021/11/20 06:31:49;;;;;;;;;;;;;;;18.17;69.38;101230.72;5033666;28;1430;-44
2021/11/20 06:34:17;;;;;;;;;;;;;;;18.27;68.83;101218.31;5042092;28;1783;-44
2021/11/20 06:37:06;;;;;;;;;;;;;;;18.54;68.37;101227.81;5054962;28;1702;-44
2021/11/20 06:42:17;;;;;;;;;;;;;;;18.20;69.84;101251.03;5033984;28;1753;-44
2021/11/20 06:44:54;;;;;;;;;;;;;;;18.19;69.71;101228.78;5051482;28;1136;-44
2021/11/20 06:47:21;;;;;;;;;;;;;;;18.43;68.88;101219.81;5046822;28;1042;-44
2021/11/20 06:49:50;;;;;;;;;;;;;;;18.44;68.64;101225.03;5052009;28;1517;-44
2021/11/20 06:52:31;;;;;;;;;;;;;;;18.27;69.83;101228.19;5051075;28;1587;-43
2021/11/20 06:54:59;;;;;;;;;;;;;;;18.20;69.26;101234.97;5038619;28;1369;-44
2021/11/20 06:57:48;;;;;;;;;;;;;;;18.39;69.32;101255.84;5044679;28;1445;-47
2021/11/20 07:00:29;;;;;;;;;;;;;;;18.54;68.52;101238.53;5051095;28;1910;-44
2021/11/20 07:03:07;;;;;;;;;;;;;;;18.35;69.77;101249.00;5037754;28;1625;-44
2021/11/20 07:05:35;;;;;;;;;;;;;;;18.22;69.41;101247.28;5050263;28;1613;-43
2021/11/20 07:08:06;;;;;;;;;;;;;;;18.31;69.27;101234.16;5052545;28;1411;-44
2021/11/20 07:10:46;;;;;;;;;;;;;;;18.73;68.80;101232.59;5048465;28;1684;-44
2021/11/20 07:13:15;;;;;;;;;;;;;;;18.56;68.40;101231.25;5044208;28;1642;-44
2021/11/20 07:15:42;;;;;;;;;;;;;;;18.46;69.87;101240.97;5039878;28;1698;-44
2021/11/20 07:18:15;;;;;;;;;;;;;;;18.28;70.39;101243.25;5050376;28;1622;-45
2021/11/20 07:20:45;;;;;;;;;;;;;;;18.42;69.59;101239.50;5049808;28;1981;-44
2021/11/20 07:23:19;;;;;;;;;;;;;;;18.65;69.15;101235.03;5043191;28;1522;-44
2021/11/20 07:25:52;;;;;;;;;;;;;;;18.58;70.13;101240.03;5038723;28;1787;-44
2021/11/20 07:28:19;;;;;;;;;;;;;;;18.37;70.40;101239.03;5049737;28;2093;-44
2021/11/20 07:30:46;;;;;;;;;;;;;;;18.29;71.13;101229.75;5051606;28;1794;-44
2021/11/20 07:33:15;;;;;;;;;;;;;;;18.59;69.58;101231.00;5047519;28;2809;-44
2021/11/20 07:35:43;;;;;;;;;;;;;;;18.69;70.19;101242.69;5050502;28;1402;-43
2021/11/20 07:38:16;;;;;;;;;;;;;;;18.53;70.30;101242.19;5051501;28;1503;-44
2021/11/20 07:40:45;;;;;;;;;;;;;;;18.45;70.12;101232.09;5044861;28;1967;-43
2021/11/20 07:43:29;;;;;;;;;;;;;;;18.44;70.64;101237.56;5045558;28;1580;-44
2021/11/20 07:46:01;;;;;;;;;;;;;;;18.59;69.97;101239.03;5051448;28;1519;-45
2021/11/20 07:48:30;;;;;;;;;;;;;;;18.74;70.25;101239.66;5052044;28;1604;-44
2021/11/20 07:51:03;;;;;;;;;;;;;;;18.62;70.40;101238.81;5052604;28;1695;-43
2021/11/20 07:53:31;;;;;;;;;;;;;;;18.50;70.21;101231.72;5050867;28;1487;-43
2021/11/20 07:56:01;;;;;;;;;;;;;;;18.36;69.83;101218.56;5047238;28;1937;-43
2021/11/20 07:58:30;;;;;;;;;;;;;;;18.51;70.03;101230.75;5044985;28;1362;-43
2021/11/20 08:01:05;;;;;;;;;;;;;;;18.64;69.40;101242.22;5048109;28;1907;-44
2021/11/20 08:03:40;;;;;;;;;;;;;;;18.52;68.92;101235.13;5044888;28;1462;-44
2021/11/20 08:06:07;;;;;;;;;;;;;;;18.46;69.13;101238.28;5039465;28;1294;-44
2021/11/20 08:08:43;;;;;;;;;;;;;;;18.38;69.54;101240.72;5039334;28;1789;-43
2021/11/20 08:11:10;;;;;;;;;;;;;;;18.65;69.38;101227.84;5046732;28;1687;-44
2021/11/20 08:13:37;;;;;;;;;;;;;;;18.93;69.48;101233.69;5039524;28;1768;-44
2021/11/20 08:16:08;;;;;;;;;;;;;;;18.79;68.27;101231.25;5039634;28;1761;-45
2021/11/20 08:18:36;;;;;;;;;;;;;;;18.59;68.99;101239.03;5045464;28;1765;-44
2021/11/20 08:21:04;;;;;;;;;;;;;;;18.58;69.00;101229.31;5046678;28;1902;-45
2021/11/20 08:23:32;;;;;;;;;;;;;;;18.44;69.59;101232.22;5046694;28;1789;-45
2021/11/20 08:26:01;;;;;;;;;;;;;;;18.45;69.13;101229.41;5040447;28;1579;-46
2021/11/20 08:28:29;;;;;;;;;;;;;;;18.38;69.11;101227.34;5044540;28;1738;-45
2021/11/20 08:30:58;;;;;;;;;;;;;;;18.39;69.58;101221.03;5041714;28;1706;-45
2021/11/20 08:33:27;;;;;;;;;;;;;;;18.43;69.04;101219.81;5046152;28;1385;-45
2021/11/20 08:35:55;;;;;;;;;;;;;;;18.37;69.77;101215.78;5042620;28;1068;-45
2021/11/20 08:38:24;;;;;;;;;;;;;;;18.60;69.33;101227.38;5049835;28;1648;-45
2021/11/20 08:41:03;;;;;;;;;;;;;;;18.83;68.73;101216.66;5045657;28;1914;-46
2021/11/20 08:43:30;;;;;;;;;;;;;;;18.81;68.12;101214.09;5045158;28;1650;-44
2021/11/20 08:45:59;;;;;;;;;;;;;;;18.88;68.37;101206.44;5050537;28;1699;-45
2021/11/20 08:48:26;;;;;;;;;;;;;;;19.31;66.94;101210.94;5040850;28;1527;-45
2021/11/20 08:50:58;;;;;;;;;;;;;;;19.42;67.29;101202.03;5052091;28;1934;-45
2021/11/20 08:53:28;;;;;;;;;;;;;;;19.36;67.20;101195.34;5050433;28;1634;-45
2021/11/20 08:56:00;;;;;;;;;;;;;;;19.53;66.17;101193.06;5037906;28;1656;-45
2021/11/20 08:58:29;;;;;;;;;;;;;;;19.54;66.56;101178.69;5039420;28;2166;-45
2021/11/20 09:01:00;;;;;;;;;;;;;;;19.52;67.81;101183.31;5043069;28;1910;-45
2021/11/20 09:03:30;;;;;;;;;;;;;;;19.45;67.21;101196.41;5042651;28;1447;-46
2021/11/20 09:06:02;;;;;;;;;;;;;;;19.60;67.73;101183.53;5050642;28;1378;-45
2021/11/20 09:08:31;;;;;;;;;;;;;;;19.72;67.61;101162.91;5049702;28;1377;-45
2021/11/20 09:11:11;;;;;;;;;;;;;;;19.68;67.21;101176.53;5033020;28;1773;-45
2021/11/20 09:13:43;;;;;;;;;;;;;;;19.71;67.49;101186.19;5045438;28;1402;-45
2021/11/20 09:16:25;;;;;;;;;;;;;;;19.61;66.58;101175.34;5048608;28;1839;-45
2021/11/20 09:18:54;;;;;;;;;;;;;;;19.72;67.18;101182.53;5040763;28;1573;-45
2021/11/20 09:21:33;;;;;;;;;;;;;;;19.89;67.81;101182.94;5052071;28;1902;-45
2021/11/20 09:24:00;;;;;;;;;;;;;;;19.63;66.78;101172.53;5047860;28;1745;-45
2021/11/20 09:26:27;;;;;;;;;;;;;;;19.29;67.81;101186.09;5049006;28;2043;-45
2021/11/20 09:28:55;;;;;;;;;;;;;;;19.05;65.32;101176.41;5040324;28;1836;-45
2021/11/20 09:31:22;;;;;;;;;;;;;;;18.88;65.23;101169.75;5050356;28;1979;-46
2021/11/20 09:33:51;;;;;;;;;;;;;;;18.86;63.93;101173.53;5054734;28;1775;-45
2021/11/20 09:36:22;;;;;;;;;;;;;;;18.81;65.14;101175.75;5055084;28;1181;-45
2021/11/20 09:38:57;;;;;;;;;;;;;;;18.85;65.68;101166.47;5052999;28;1766;-45
2021/11/20 09:41:36;;;;;;;;;;;;;;;18.96;65.73;101166.47;5044467;28;1985;-46
2021/11/20 09:44:04;;;;;;;;;;;;;;;18.82;67.83;101151.50;5053326;28;1857;-45
2021/11/20 09:46:45;;;;;;;;;;;;;;;18.68;69.21;101166.00;5049389;28;1595;-44
2021/11/20 09:49:15;;;;;;;;;;;;;;;18.64;68.35;101172.56;5043869;28;1591;-44
2021/11/20 09:51:42;;;;;;;;;;;;;;;18.68;68.38;101165.13;5058008;28;1630;-44
2021/11/20 09:54:19;;;;;;;;;;;;;;;18.58;69.02;101158.81;5051729;28;1784;-45
2021/11/20 09:56:50;;;;;;;;;;;;;;;18.54;69.46;101166.22;5048329;28;1718;-45
2021/11/20 09:59:40;;;;;;;;;;;;;;;18.58;68.82;101162.34;5050178;28;1399;-46
2021/11/20 10:02:09;;;;;;;;;;;;;;;18.54;67.88;101152.00;5034895;28;1991;-44
2021/11/20 10:04:46;;;;;;;;;;;;;;;18.50;67.56;101156.72;5050055;28;1852;-45
2021/11/20 10:07:15;;;;;;;;;;;;;;;18.42;66.83;101151.13;5053057;28;2009;-45
2021/11/20 10:09:58;;;;;;;;;;;;;;;18.51;65.83;101155.78;5053189;28;1516;-45
2021/11/20 10:12:31;;;;;;;;;;;;;;;18.38;67.22;101157.72;5033853;28;1563;-45
2021/11/20 10:15:07;;;;;;;;;;;;;;;18.34;66.54;101145.53;5053240;28;1173;-45
2021/11/20 10:17:36;;;;;;;;;;;;;;;18.29;66.76;101138.72;5035309;28;1131;-46
2021/11/20 10:20:25;;;;;;;;;;;;;;;18.28;66.36;101125.47;5038505;28;1694;-45
2021/11/20 10:23:07;;;;;;;;;;;;;;;18.22;66.48;101125.94;5048087;28;1752;-45
2021/11/20 10:25:49;;;;;;;;;;;;;;;18.22;66.80;101124.16;5046198;28;1716;-45
2021/11/20 10:28:28;;;;;;;;;;;;;;;18.20;66.38;101123.38;5047637;28;1800;-46
2021/11/20 10:30:56;;;;;;;;;;;;;;;18.19;66.22;101121.72;5041964;28;1765;-45
2021/11/20 10:33:24;;;;;;;;;;;;;;;18.21;66.66;101132.28;5039400;28;1583;-45
2021/11/20 10:35:53;;;;;;;;;;;;;;;18.18;66.40;101113.78;5044871;28;1083;-45
2021/11/20 10:38:49;;;;;;;;;;;;;;;18.13;66.85;101106.13;5042655;28;1885;-45
2021/11/20 10:41:24;;;;;;;;;;;;;;;18.12;66.74;101125.81;5036768;28;1910;-45
2021/11/20 10:43:56;;;;;;;;;;;;;;;18.08;66.57;101113.66;5047482;28;1907;-45
2021/11/20 10:46:26;;;;;;;;;;;;;;;18.10;66.96;101111.72;5052508;28;1971;-45
2021/11/20 10:49:20;;;;;;;;;;;;;;;18.09;66.95;101110.88;5046001;28;1682;-45
2021/11/20 10:51:51;;;;;;;;;;;;;;;18.07;66.57;101112.81;5054646;28;1073;-47
2021/11/20 10:54:48;;;;;;;;;;;;;;;18.06;66.51;101102.22;5048351;28;1004;-45
2021/11/20 10:57:21;;;;;;;;;;;;;;;18.05;66.53;101097.88;5047703;28;1604;-45
2021/11/20 11:00:19;;;;;;;;;;;;;;;18.03;66.25;101097.97;5034487;28;1003;-44
2021/11/20 11:03:12;;;;;;;;;;;;;;;18.05;66.43;101089.84;5035898;28;1902;-45
2021/11/20 11:05:48;;;;;;;;;;;;;;;18.02;66.37;101084.72;5034520;28;1092;-45
2021/11/20 11:08:26;;;;;;;;;;;;;;;17.99;66.63;101082.28;5034794;28;1782;-45
2021/11/20 11:11:02;;;;;;;;;;;;;;;17.98;65.98;101085.94;5037064;28;1420;-45
2021/11/20 11:13:42;;;;;;;;;;;;;;;17.99;66.30;101088.50;5040164;28;1695;-45
2021/11/20 11:16:19;;;;;;;;;;;;;;;17.98;66.10;101069.88;5041883;28;1548;-45
2021/11/20 11:18:49;;;;;;;;;;;;;;;17.97;66.46;101074.38;5042060;28;1660;-45
2021/11/20 11:21:35;;;;;;;;;;;;;;;17.95;66.06;101064.78;5041921;28;1979;-45
2021/11/20 11:24:12;;;;;;;;;;;;;;;17.94;65.97;101089.81;5050544;28;1833;-45
2021/11/20 11:26:43;;;;;;;;;;;;;;;17.93;65.96;101075.59;5039050;28;1978;-44
2021/11/20 11:29:31;;;;;;;;;;;;;;;17.93;65.88;101066.72;5035658;28;1740;-44
2021/11/20 11:31:59;;;;;;;;;;;;;;;17.95;65.36;101070.13;5049022;28;1719;-45
2021/11/20 11:34:40;;;;;;;;;;;;;;;17.93;65.76;101058.69;5038583;28;2026;-45
2021/11/20 11:37:19;;;;;;;;;;;;;;;17.92;65.73;101067.69;5033657;28;1914;-46
2021/11/20 11:39:49;;;;;;;;;;;;;;;17.95;65.85;101088.88;5051467;28;1629;-45
2021/11/20 11:42:46;;;;;;;;;;;;;;;17.93;65.82;101083.63;5046867;28;1979;-45
2021/11/20 11:45:34;;;;;;;;;;;;;;;17.92;65.90;101067.69;5047991;28;1655;-46
2021/11/20 11:48:26;;;;;;;;;;;;;;;17.91;65.85;101068.69;5049779;28;1713;-45
2021/11/20 11:51:08;;;;;;;;;;;;;;;17.91;65.70;101074.03;5043716;28;1193;-45
2021/11/20 11:53:41;;;;;;;;;;;;;;;17.88;65.65;101051.84;5044662;28;1963;-47
2021/11/20 11:56:08;;;;;;;;;;;;;;;17.87;65.54;101052.84;5043272;28;1711;-45
2021/11/20 11:58:55;;;;;;;;;;;;;;;17.89;65.64;101048.22;5040526;28;1900;-45
2021/11/20 12:01:24;;;;;;;;;;;;;;;17.87;65.58;101036.78;5009407;28;1898;-45
2021/11/20 12:04:06;;;;;;;;;;;;;;;17.88;65.49;101041.16;5034645;28;1965;-45
2021/11/20 12:09:36;;;;;;;;;;;;;;;17.90;65.27;101041.03;5045686;28;2458;-49
2021/11/20 12:12:15;;;;;;;;;;;;;;;17.85;65.45;101024.53;5039877;28;994;-45
2021/11/20 12:14:44;;;;;;;;;;;;;;;17.84;65.23;101026.31;5032674;28;1084;-45
2021/11/20 12:17:50;;;;;;;;;;;;;;;17.90;65.19;101030.34;5040676;28;1958;-45
2021/11/20 12:20:23;;;;;;;;;;;;;;;17.85;65.75;101038.75;5046228;28;1068;-46
2021/11/20 12:23:12;;;;;;;;;;;;;;;17.85;65.72;101022.69;5036048;28;1920;-45
2021/11/20 12:26:12;;;;;;;;;;;;;;;17.86;65.31;101024.38;5043656;28;1692;-45
2021/11/20 12:28:44;;;;;;;;;;;;;;;17.89;65.32;101039.34;5044058;28;1877;-45
2021/11/20 12:31:34;;;;;;;;;;;;;;;17.84;65.64;101029.00;5049710;28;1844;-45
2021/11/20 12:34:11;;;;;;;;;;;;;;;17.85;64.86;101020.03;5038200;28;1716;-45
2021/11/20 12:36:58;;;;;;;;;;;;;;;17.85;65.87;101028.03;5032945;28;1046;-45
2021/11/20 12:39:51;;;;;;;;;;;;;;;17.85;65.46;101016.50;5045773;28;1108;-44
2021/11/20 12:42:28;;;;;;;;;;;;;;;17.80;65.48;101024.84;5018388;28;1987;-44
2021/11/20 12:45:09;;;;;;;;;;;;;;;17.81;65.41;101023.03;5032196;28;1923;-45
2021/11/20 12:47:51;;;;;;;;;;;;;;;17.78;65.31;101031.28;5033895;28;1872;-45
2021/11/20 12:50:32;;;;;;;;;;;;;;;17.82;65.70;101033.59;5030507;28;1530;-45
2021/11/20 12:53:02;;;;;;;;;;;;;;;17.83;65.24;101031.78;5038185;28;1838;-45
2021/11/20 12:55:57;;;;;;;;;;;;;;;17.82;65.46;101033.59;5047578;28;2157;-44
2021/11/20 12:58:40;;;;;;;;;;;;;;;17.82;65.37;101036.25;5039595;28;1769;-45
2021/11/20 13:01:08;;;;;;;;;;;;;;;17.80;65.72;101026.66;5049949;28;1977;-44
2021/11/20 13:03:37;;;;;;;;;;;;;;;17.80;64.97;101030.19;5034356;28;1965;-45
2021/11/20 13:06:21;;;;;;;;;;;;;;;17.80;65.85;101029.34;5044652;28;1341;-44
2021/11/20 13:08:53;;;;;;;;;;;;;;;17.80;65.79;101029.34;5044159;28;2029;-45
2021/11/20 13:11:27;;;;;;;;;;;;;;;17.82;65.72;101038.94;5040660;28;1669;-44
2021/11/20 13:14:03;;;;;;;;;;;;;;;17.82;65.39;101032.75;5048223;28;1263;-45
2021/11/20 13:16:37;;;;;;;;;;;;;;;17.81;65.03;101036.41;5043097;28;1831;-45
2021/11/20 13:19:16;;;;;;;;;;;;;;;17.79;65.62;101020.47;5040050;28;1836;-45
2021/11/20 13:21:46;;;;;;;;;;;;;;;17.77;65.55;101030.44;5037087;28;1983;-45
2021/11/20 13:24:17;;;;;;;;;;;;;;;17.80;65.76;101029.34;5035777;28;1764;-45
2021/11/20 13:27:03;;;;;;;;;;;;;;;17.76;65.58;101027.88;5038064;28;1853;-44